sensor_id;sensor_type;location;lat;lon;timestamp;pressure;altitude;pressure_sealevel;temperature;humidity
75886;BME280;64561;44.018;10.144;2023-09-19T00:00:22;101390.53;;;23.33;92.01
75886;BME280;64561;44.018;10.144;2023-09-19T00:02:54;101394.00;;;23.34;91.84
75886;BME280;64561;44.018;10.144;2023-09-19T00:05:21;101393.13;;;23.35;91.84
75886;BME280;64561;44.018;10.144;2023-09-19T00:07:51;101397.38;;;23.39;91.43
75886;BME280;64561;44.018;10.144;2023-09-19T00:10:21;101390.41;;;23.39;91.77
75886;BME280;64561;44.018;10.144;2023-09-19T00:12:51;101385.19;;;23.39;91.77
75886;BME280;64561;44.018;10.144;2023-09-19T00:15:26;101392.09;;;23.42;91.18
75886;BME280;64561;44.018;10.144;2023-09-19T00:17:56;101391.25;;;23.40;91.25
75886;BME280;64561;44.018;10.144;2023-09-19T00:20:23;101395.63;;;23.41;91.43
75886;BME280;64561;44.018;10.144;2023-09-19T00:22:51;101390.41;;;23.41;91.33
75886;BME280;64561;44.018;10.144;2023-09-19T00:25:21;101392.09;;;23.42;91.18
75886;BME280;64561;44.018;10.144;2023-09-19T00:27:48;101387.78;;;23.41;91.16
75886;BME280;64561;44.018;10.144;2023-09-19T00:30:18;101389.44;;;23.43;91.07
75886;BME280;64561;44.018;10.144;2023-09-19T00:32:50;101388.56;;;23.44;91.05
75886;BME280;64561;44.018;10.144;2023-09-19T00:35:22;101393.81;;;23.44;91.09
75886;BME280;64561;44.018;10.144;2023-09-19T00:37:53;101386.84;;;23.43;91.75
75886;BME280;64561;44.018;10.144;2023-09-19T00:40:20;101384.22;;;23.43;92.38
75886;BME280;64561;44.018;10.144;2023-09-19T00:42:49;101378.06;;;23.46;92.83
75886;BME280;64561;44.018;10.144;2023-09-19T00:45:17;101376.31;;;23.46;92.85
75886;BME280;64561;44.018;10.144;2023-09-19T00:47:48;101387.59;;;23.48;93.33
75886;BME280;64561;44.018;10.144;2023-09-19T00:50:21;101385.84;;;23.49;93.46
75886;BME280;64561;44.018;10.144;2023-09-19T00:52:52;101387.59;;;23.48;93.76
75886;BME280;64561;44.018;10.144;2023-09-19T00:55:20;101387.59;;;23.48;93.54
75886;BME280;64561;44.018;10.144;2023-09-19T00:57:48;101392.00;;;23.46;94.04
75886;BME280;64561;44.018;10.144;2023-09-19T01:00:17;101392.94;;;23.44;94.10
75886;BME280;64561;44.018;10.144;2023-09-19T01:02:47;101391.19;;;23.43;94.21
75886;BME280;64561;44.018;10.144;2023-09-19T01:05:15;101383.41;;;23.41;94.23
75886;BME280;64561;44.018;10.144;2023-09-19T01:07:43;101389.44;;;23.43;94.35
75886;BME280;64561;44.018;10.144;2023-09-19T01:10:18;101385.13;;;23.42;94.54
75886;BME280;64561;44.018;10.144;2023-09-19T01:13:36;101399.03;;;23.44;94.95
75886;BME280;64561;44.018;10.144;2023-09-19T01:18:38;101394.84;;;23.34;94.99
75886;BME280;64561;44.018;10.144;2023-09-19T01:21:44;101399.22;;;23.34;95.08
75886;BME280;64561;44.018;10.144;2023-09-19T01:27:31;101394.91;;;23.31;95.64
75886;BME280;64561;44.018;10.144;2023-09-19T01:30:14;101400.25;;;23.26;95.61
75886;BME280;64561;44.018;10.144;2023-09-19T01:32:42;101404.56;;;23.27;95.62
75886;BME280;64561;44.018;10.144;2023-09-19T01:35:10;101401.09;;;23.27;95.90
75886;BME280;64561;44.018;10.144;2023-09-19T01:37:40;101392.44;;;23.25;96.19
75886;BME280;64561;44.018;10.144;2023-09-19T01:40:17;101395.09;;;23.23;96.23
75886;BME280;64561;44.018;10.144;2023-09-19T01:43:25;101398.75;;;23.13;96.95
75886;BME280;64561;44.018;10.144;2023-09-19T01:46:19;101412.75;;;23.11;97.13
75886;BME280;64561;44.018;10.144;2023-09-19T01:52:09;101419.78;;;23.05;98.36
75886;BME280;64561;44.018;10.144;2023-09-19T01:54:48;101409.41;;;23.02;98.23
75886;BME280;64561;44.018;10.144;2023-09-19T01:57:34;101405.94;;;23.02;98.49
75886;BME280;64561;44.018;10.144;2023-09-19T02:00:07;101402.44;;;23.03;98.65
75886;BME280;64561;44.018;10.144;2023-09-19T02:02:44;101399.94;;;22.97;99.96
75886;BME280;64561;44.018;10.144;2023-09-19T02:05:13;101395.69;;;22.90;100.00
75886;BME280;64561;44.018;10.144;2023-09-19T02:07:48;101391.28;;;22.92;100.00
75886;BME280;64561;44.018;10.144;2023-09-19T02:10:17;101395.63;;;22.96;99.84
75886;BME280;64561;44.018;10.144;2023-09-19T02:12:45;101397.31;;;22.97;100.00
75886;BME280;64561;44.018;10.144;2023-09-19T02:15:14;101395.63;;;22.93;99.53
75886;BME280;64561;44.018;10.144;2023-09-19T02:17:43;101383.44;;;22.93;99.85
75886;BME280;64561;44.018;10.144;2023-09-19T02:20:12;101365.19;;;22.92;99.79
75886;BME280;64561;44.018;10.144;2023-09-19T02:22:42;101355.59;;;22.94;99.58
75886;BME280;64561;44.018;10.144;2023-09-19T02:25:29;101351.19;;;22.97;99.97
75886;BME280;64561;44.018;10.144;2023-09-19T02:27:57;101350.28;;;23.00;99.78
75886;BME280;64561;44.018;10.144;2023-09-19T02:30:30;101345.84;;;23.03;99.67
75886;BME280;64561;44.018;10.144;2023-09-19T02:32:57;101344.91;;;23.08;99.81
75886;BME280;64561;44.018;10.144;2023-09-19T02:35:24;101343.16;;;23.08;99.44
75886;BME280;64561;44.018;10.144;2023-09-19T02:37:52;101338.81;;;23.07;99.29
75886;BME280;64561;44.018;10.144;2023-09-19T02:40:20;101347.47;;;23.11;98.94
75886;BME280;64561;44.018;10.144;2023-09-19T02:42:48;101351.75;;;23.13;99.02
75886;BME280;64561;44.018;10.144;2023-09-19T02:45:17;101345.66;;;23.13;99.34
75886;BME280;64561;44.018;10.144;2023-09-19T02:47:45;101341.34;;;23.12;99.35
75886;BME280;64561;44.018;10.144;2023-09-19T02:50:15;101359.47;;;23.19;98.72
75886;BME280;64561;44.018;10.144;2023-09-19T02:52:45;101360.41;;;23.17;99.18
75886;BME280;64561;44.018;10.144;2023-09-19T02:55:17;101358.84;;;23.07;99.38
75886;BME280;64561;44.018;10.144;2023-09-19T02:57:46;101368.44;;;23.06;99.68
75886;BME280;64561;44.018;10.144;2023-09-19T03:00:15;101363.19;;;23.08;100.00
75886;BME280;64561;44.018;10.144;2023-09-19T03:02:42;101369.22;;;23.10;100.00
75886;BME280;64561;44.018;10.144;2023-09-19T03:05:09;101372.69;;;23.10;100.00
75886;BME280;64561;44.018;10.144;2023-09-19T03:07:38;101360.66;;;23.04;99.43
75886;BME280;64561;44.018;10.144;2023-09-19T03:10:06;101355.44;;;23.03;99.93
75886;BME280;64561;44.018;10.144;2023-09-19T03:12:34;101360.59;;;23.06;100.00
75886;BME280;64561;44.018;10.144;2023-09-19T03:15:02;101366.72;;;23.05;99.90
75886;BME280;64561;44.018;10.144;2023-09-19T03:17:31;101368.41;;;23.08;99.80
75886;BME280;64561;44.018;10.144;2023-09-19T03:20:00;101367.53;;;23.07;99.85
75886;BME280;64561;44.018;10.144;2023-09-19T03:22:29;101369.28;;;23.07;99.30
75886;BME280;64561;44.018;10.144;2023-09-19T03:24:56;101363.28;;;23.03;99.53
75886;BME280;64561;44.018;10.144;2023-09-19T03:27:23;101359.81;;;23.01;99.26
75886;BME280;64561;44.018;10.144;2023-09-19T03:29:51;101367.78;;;22.95;99.87
75886;BME280;64561;44.018;10.144;2023-09-19T03:32:19;101361.69;;;22.96;99.64
75886;BME280;64561;44.018;10.144;2023-09-19T03:34:46;101359.06;;;22.96;99.85
75886;BME280;64561;44.018;10.144;2023-09-19T03:37:16;101370.38;;;22.96;100.00
75886;BME280;64561;44.018;10.144;2023-09-19T03:39:44;101365.25;;;22.89;100.00
75886;BME280;64561;44.018;10.144;2023-09-19T03:42:11;101360.06;;;22.87;100.00
75886;BME280;64561;44.018;10.144;2023-09-19T03:44:38;101353.09;;;22.88;100.00
75886;BME280;64561;44.018;10.144;2023-09-19T03:47:06;101351.38;;;22.87;100.00
75886;BME280;64561;44.018;10.144;2023-09-19T03:49:34;101346.16;;;22.87;100.00
75886;BME280;64561;44.018;10.144;2023-09-19T03:52:01;101348.72;;;22.88;100.00
75886;BME280;64561;44.018;10.144;2023-09-19T03:54:28;101344.41;;;22.86;99.37
75886;BME280;64561;44.018;10.144;2023-09-19T03:56:55;101352.38;;;22.79;99.64
75886;BME280;64561;44.018;10.144;2023-09-19T03:59:23;101349.91;;;22.72;100.00
75886;BME280;64561;44.018;10.144;2023-09-19T04:01:50;101348.16;;;22.71;100.00
75886;BME280;64561;44.018;10.144;2023-09-19T04:04:22;101355.19;;;22.69;100.00
75886;BME280;64561;44.018;10.144;2023-09-19T04:06:51;101356.09;;;22.66;100.00
75886;BME280;64561;44.018;10.144;2023-09-19T04:09:18;101357.13;;;22.56;100.00
75886;BME280;64561;44.018;10.144;2023-09-19T04:11:45;101358.91;;;22.54;100.00
75886;BME280;64561;44.018;10.144;2023-09-19T04:14:12;101352.84;;;22.53;100.00
75886;BME280;64561;44.018;10.144;2023-09-19T04:16:40;101350.16;;;22.58;100.00
75886;BME280;64561;44.018;10.144;2023-09-19T04:19:07;101349.28;;;22.57;100.00
75886;BME280;64561;44.018;10.144;2023-09-19T04:21:34;101345.72;;;22.62;100.00
75886;BME280;64561;44.018;10.144;2023-09-19T04:24:02;101330.00;;;22.65;100.00
75886;BME280;64561;44.018;10.144;2023-09-19T04:26:29;101334.31;;;22.67;100.00
75886;BME280;64561;44.018;10.144;2023-09-19T04:28:56;101336.88;;;22.72;100.00
75886;BME280;64561;44.018;10.144;2023-09-19T04:31:23;101342.91;;;22.74;100.00
75886;BME280;64561;44.018;10.144;2023-09-19T04:33:50;101344.69;;;22.72;100.00
75886;BME280;64561;44.018;10.144;2023-09-19T04:36:18;101362.00;;;22.76;100.00
75886;BME280;64561;44.018;10.144;2023-09-19T04:39:01;101351.63;;;22.73;100.00
75886;BME280;64561;44.018;10.144;2023-09-19T04:41:34;101350.75;;;22.72;100.00
75886;BME280;64561;44.018;10.144;2023-09-19T04:44:01;101353.38;;;22.71;100.00
75886;BME280;64561;44.018;10.144;2023-09-19T04:46:28;101346.41;;;22.73;100.00
75886;BME280;64561;44.018;10.144;2023-09-19T04:48:56;101352.41;;;22.76;100.00
75886;BME280;64561;44.018;10.144;2023-09-19T04:51:23;101345.56;;;22.71;100.00
75886;BME280;64561;44.018;10.144;2023-09-19T04:53:50;101346.47;;;22.70;100.00
75886;BME280;64561;44.018;10.144;2023-09-19T04:56:17;101360.31;;;22.73;100.00
75886;BME280;64561;44.018;10.144;2023-09-19T04:58:45;101357.63;;;22.76;100.00
75886;BME280;64561;44.018;10.144;2023-09-19T05:01:12;101363.69;;;22.78;100.00
75886;BME280;64561;44.018;10.144;2023-09-19T05:03:42;101378.47;;;22.79;100.00
75886;BME280;64561;44.018;10.144;2023-09-19T05:06:09;101373.25;;;22.79;100.00
75886;BME280;64561;44.018;10.144;2023-09-19T05:08:36;101375.78;;;22.82;100.00
75886;BME280;64561;44.018;10.144;2023-09-19T05:11:03;101374.03;;;22.83;100.00
75886;BME280;64561;44.018;10.144;2023-09-19T05:13:30;101373.16;;;22.84;100.00
75886;BME280;64561;44.018;10.144;2023-09-19T05:16:00;101362.69;;;22.86;100.00
75886;BME280;64561;44.018;10.144;2023-09-19T05:18:29;101373.06;;;22.89;100.00
75886;BME280;64561;44.018;10.144;2023-09-19T05:20:56;101382.66;;;22.90;100.00
75886;BME280;64561;44.018;10.144;2023-09-19T05:23:23;101382.66;;;22.90;99.83
75886;BME280;64561;44.018;10.144;2023-09-19T05:25:50;101390.44;;;22.91;99.69
75886;BME280;64561;44.018;10.144;2023-09-19T05:28:18;101387.81;;;22.91;99.69
75886;BME280;64561;44.018;10.144;2023-09-19T05:30:45;101386.06;;;22.92;99.38
75886;BME280;64561;44.018;10.144;2023-09-19T05:33:15;101386.06;;;22.92;99.11
75886;BME280;64561;44.018;10.144;2023-09-19T05:35:42;101388.69;;;22.92;99.07
75886;BME280;64561;44.018;10.144;2023-09-19T05:38:10;101391.28;;;22.92;98.56
75886;BME280;64561;44.018;10.144;2023-09-19T05:40:40;101392.13;;;22.94;98.13
75886;BME280;64561;44.018;10.144;2023-09-19T05:43:12;101395.63;;;22.93;97.98
75886;BME280;64561;44.018;10.144;2023-09-19T05:45:41;101401.69;;;22.95;97.39
75886;BME280;64561;44.018;10.144;2023-09-19T05:50:36;101401.69;;;22.96;97.34
75886;BME280;64561;44.018;10.144;2023-09-19T05:53:03;101405.13;;;22.98;97.04
75886;BME280;64561;44.018;10.144;2023-09-19T05:55:33;101409.47;;;22.99;97.21
75886;BME280;64561;44.018;10.144;2023-09-19T05:58:00;101407.72;;;23.00;97.07
75886;BME280;64561;44.018;10.144;2023-09-19T06:00:33;101402.44;;;23.01;97.31
75886;BME280;64561;44.018;10.144;2023-09-19T06:03:02;101417.25;;;23.01;97.14
75886;BME280;64561;44.018;10.144;2023-09-19T06:05:30;101417.25;;;23.01;97.56
75886;BME280;64561;44.018;10.144;2023-09-19T06:07:59;101426.06;;;22.95;97.08
75886;BME280;64561;44.018;10.144;2023-09-19T06:10:27;101427.81;;;22.95;97.34
75886;BME280;64561;44.018;10.144;2023-09-19T06:12:56;101429.44;;;23.00;97.35
75886;BME280;64561;44.018;10.144;2023-09-19T06:15:25;101431.16;;;23.03;97.44
75886;BME280;64561;44.018;10.144;2023-09-19T06:17:55;101434.50;;;23.10;97.07
75886;BME280;64561;44.018;10.144;2023-09-19T06:20:24;101437.13;;;23.10;96.79
75886;BME280;64561;44.018;10.144;2023-09-19T06:22:53;101438.81;;;23.12;96.53
75886;BME280;64561;44.018;10.144;2023-09-19T06:25:21;101430.06;;;23.13;95.84
75886;BME280;64561;44.018;10.144;2023-09-19T06:27:53;101426.59;;;23.14;95.92
75886;BME280;64561;44.018;10.144;2023-09-19T06:30:24;101431.81;;;23.14;95.72
75886;BME280;64561;44.018;10.144;2023-09-19T06:33:00;101426.59;;;23.14;95.59
75886;BME280;64561;44.018;10.144;2023-09-19T06:35:32;101426.63;;;23.13;96.38
75886;BME280;64561;44.018;10.144;2023-09-19T06:38:04;101426.72;;;23.08;96.75
75886;BME280;64561;44.018;10.144;2023-09-19T06:40:31;101425.88;;;23.08;96.07
75886;BME280;64561;44.018;10.144;2023-09-19T06:43:01;101420.59;;;23.11;95.59
75886;BME280;64561;44.018;10.144;2023-09-19T06:45:31;101421.34;;;23.16;95.64
75886;BME280;64561;44.018;10.144;2023-09-19T06:47:58;101419.53;;;23.19;93.39
75886;BME280;64561;44.018;10.144;2023-09-19T06:50:27;101418.53;;;23.25;92.56
75886;BME280;64561;44.018;10.144;2023-09-19T06:52:55;101415.03;;;23.27;92.12
75886;BME280;64561;44.018;10.144;2023-09-19T06:55:26;101424.44;;;23.36;91.78
75886;BME280;64561;44.018;10.144;2023-09-19T06:57:59;101426.06;;;23.42;90.80
75886;BME280;64561;44.018;10.144;2023-09-19T07:00:26;101434.69;;;23.47;89.82
75886;BME280;64561;44.018;10.144;2023-09-19T07:03:00;101431.09;;;23.51;90.13
75886;BME280;64561;44.018;10.144;2023-09-19T07:05:36;101437.19;;;23.51;90.09
75886;BME280;64561;44.018;10.144;2023-09-19T07:08:07;101441.50;;;23.54;88.47
75886;BME280;64561;44.018;10.144;2023-09-19T07:10:36;101438.88;;;23.56;87.32
75886;BME280;64561;44.018;10.144;2023-09-19T07:13:05;101442.34;;;23.56;87.34
75886;BME280;64561;44.018;10.144;2023-09-19T07:15:39;101447.38;;;23.64;85.87
75886;BME280;64561;44.018;10.144;2023-09-19T07:18:09;101447.50;;;23.59;84.51
75886;BME280;64561;44.018;10.144;2023-09-19T07:20:38;101450.25;;;23.53;85.15
75886;BME280;64561;44.018;10.144;2023-09-19T07:23:05;101450.13;;;23.59;85.32
75886;BME280;64561;44.018;10.144;2023-09-19T07:25:35;101453.47;;;23.64;85.27
75886;BME280;64561;44.018;10.144;2023-09-19T07:28:03;101450.84;;;23.66;85.18
75886;BME280;64561;44.018;10.144;2023-09-19T07:30:30;101449.00;;;23.72;84.57
75886;BME280;64561;44.018;10.144;2023-09-19T07:32:57;101455.06;;;23.73;82.03
75886;BME280;64561;44.018;10.144;2023-09-19T07:35:25;101460.16;;;23.79;82.91
75886;BME280;64561;44.018;10.144;2023-09-19T07:37:52;101466.16;;;23.86;82.79
75886;BME280;64561;44.018;10.144;2023-09-19T07:40:20;101463.38;;;23.93;83.65
75886;BME280;64561;44.018;10.144;2023-09-19T07:42:48;101457.16;;;23.99;83.30
75886;BME280;64561;44.018;10.144;2023-09-19T07:45:16;101476.88;;;24.14;82.20
75886;BME280;64561;44.018;10.144;2023-09-19T07:47:45;101469.78;;;24.19;81.95
75886;BME280;64561;44.018;10.144;2023-09-19T07:50:15;101475.66;;;24.29;83.47
75886;BME280;64561;44.018;10.144;2023-09-19T07:52:47;101478.16;;;24.35;83.82
75886;BME280;64561;44.018;10.144;2023-09-19T07:55:14;101483.25;;;24.41;82.57
75886;BME280;64561;44.018;10.144;2023-09-19T07:57:46;101477.06;;;24.45;82.29
75886;BME280;64561;44.018;10.144;2023-09-19T08:00:14;101483.19;;;24.44;81.93
75886;BME280;64561;44.018;10.144;2023-09-19T08:02:42;101477.97;;;24.44;82.66
75886;BME280;64561;44.018;10.144;2023-09-19T08:05:11;101477.06;;;24.45;82.46
75886;BME280;64561;44.018;10.144;2023-09-19T08:07:42;101491.81;;;24.49;82.73
75886;BME280;64561;44.018;10.144;2023-09-19T08:10:09;101475.28;;;24.47;82.57
75886;BME280;64561;44.018;10.144;2023-09-19T08:12:43;101484.75;;;24.53;81.70
75886;BME280;64561;44.018;10.144;2023-09-19T08:15:14;101480.28;;;24.56;81.71
75886;BME280;64561;44.018;10.144;2023-09-19T08:17:42;101481.75;;;24.68;81.36
75886;BME280;64561;44.018;10.144;2023-09-19T08:20:11;101481.47;;;24.79;80.48
75886;BME280;64561;44.018;10.144;2023-09-19T08:22:53;101475.28;;;24.83;79.44
75886;BME280;64561;44.018;10.144;2023-09-19T08:25:24;101479.50;;;24.89;79.49
75886;BME280;64561;44.018;10.144;2023-09-19T08:27:54;101481.06;;;24.96;78.25
75886;BME280;64561;44.018;10.144;2023-09-19T08:30:24;101490.69;;;24.95;78.41
75886;BME280;64561;44.018;10.144;2023-09-19T08:32:58;101495.88;;;24.97;79.13
75886;BME280;64561;44.018;10.144;2023-09-19T08:35:31;101501.25;;;24.92;76.79
75886;BME280;64561;44.018;10.144;2023-09-19T08:37:59;101503.72;;;24.97;78.33
75886;BME280;64561;44.018;10.144;2023-09-19T08:40:32;101505.47;;;24.98;77.90
75886;BME280;64561;44.018;10.144;2023-09-19T08:43:00;101509.78;;;25.00;78.37
75886;BME280;64561;44.018;10.144;2023-09-19T08:45:27;101506.16;;;25.04;78.56
75886;BME280;64561;44.018;10.144;2023-09-19T08:48:26;101494.69;;;25.08;78.86
75886;BME280;64561;44.018;10.144;2023-09-19T08:51:10;101497.28;;;25.10;77.63
75886;BME280;64561;44.018;10.144;2023-09-19T08:56:31;101500.16;;;24.99;75.36
75886;BME280;64561;44.018;10.144;2023-09-19T08:59:03;101503.81;;;24.94;76.40
75886;BME280;64561;44.018;10.144;2023-09-19T09:01:31;101503.09;;;24.87;76.55
75886;BME280;64561;44.018;10.144;2023-09-19T09:04:01;101511.19;;;24.78;77.38
75886;BME280;64561;44.018;10.144;2023-09-19T09:06:29;101511.19;;;24.78;78.52
75886;BME280;64561;44.018;10.144;2023-09-19T09:08:57;101504.09;;;24.83;79.34
75886;BME280;64561;44.018;10.144;2023-09-19T09:11:24;101514.34;;;24.91;80.61
75886;BME280;64561;44.018;10.144;2023-09-19T09:13:55;101508.19;;;24.93;80.68
75886;BME280;64561;44.018;10.144;2023-09-19T09:16:23;101509.69;;;25.03;80.15
75886;BME280;64561;44.018;10.144;2023-09-19T09:18:53;101505.25;;;25.05;80.63
75886;BME280;64561;44.018;10.144;2023-09-19T09:21:25;101507.72;;;25.13;81.34
75886;BME280;64561;44.018;10.144;2023-09-19T09:23:52;101497.13;;;25.18;80.13
75886;BME280;64561;44.018;10.144;2023-09-19T09:26:41;101501.22;;;25.28;80.72
75886;BME280;64561;44.018;10.144;2023-09-19T09:29:10;101492.34;;;25.34;78.95
75886;BME280;64561;44.018;10.144;2023-09-19T09:31:37;101488.91;;;25.31;80.17
75886;BME280;64561;44.018;10.144;2023-09-19T09:34:05;101489.59;;;25.38;79.84
75886;BME280;64561;44.018;10.144;2023-09-19T09:36:39;101488.38;;;25.51;77.57
75886;BME280;64561;44.018;10.144;2023-09-19T09:39:08;101496.25;;;25.50;75.44
75886;BME280;64561;44.018;10.144;2023-09-19T09:41:46;101491.94;;;25.49;76.44
75886;BME280;64561;44.018;10.144;2023-09-19T09:44:17;101492.03;;;25.44;76.92
75886;BME280;64561;44.018;10.144;2023-09-19T09:46:47;101485.25;;;25.37;78.81
75886;BME280;64561;44.018;10.144;2023-09-19T09:49:37;101491.16;;;25.45;79.56
75886;BME280;64561;44.018;10.144;2023-09-19T09:52:07;101495.09;;;25.60;79.66
75886;BME280;64561;44.018;10.144;2023-09-19T09:54:58;101487.84;;;25.70;74.12
75886;BME280;64561;44.018;10.144;2023-09-19T09:57:28;101485.94;;;25.75;75.09
75886;BME280;64561;44.018;10.144;2023-09-19T10:00:01;101476.19;;;25.80;76.74
75886;BME280;64561;44.018;10.144;2023-09-19T10:02:40;101483.44;;;26.02;76.34
75886;BME280;64561;44.018;10.144;2023-09-19T10:07:54;101486.16;;;25.98;74.81
75886;BME280;64561;44.018;10.144;2023-09-19T10:10:36;101484.63;;;25.91;74.40
75886;BME280;64561;44.018;10.144;2023-09-19T10:13:11;101489.06;;;25.89;72.49
75886;BME280;64561;44.018;10.144;2023-09-19T10:15:48;101490.72;;;25.92;73.52
75886;BME280;64561;44.018;10.144;2023-09-19T10:20:48;101489.50;;;26.04;70.22
75886;BME280;64561;44.018;10.144;2023-09-19T10:23:18;101488.69;;;26.02;71.11
75886;BME280;64561;44.018;10.144;2023-09-19T10:25:53;101490.19;;;26.10;68.46
75886;BME280;64561;44.018;10.144;2023-09-19T10:28:21;101492.72;;;26.13;68.19
75886;BME280;64561;44.018;10.144;2023-09-19T10:30:51;101494.34;;;26.17;67.73
75886;BME280;64561;44.018;10.144;2023-09-19T10:33:21;101496.91;;;26.19;69.29
75886;BME280;64561;44.018;10.144;2023-09-19T10:35:50;101490.84;;;26.17;66.50
75886;BME280;64561;44.018;10.144;2023-09-19T10:38:19;101496.88;;;26.20;68.17
75886;BME280;64561;44.018;10.144;2023-09-19T10:40:53;101495.03;;;26.24;65.36
75886;BME280;64561;44.018;10.144;2023-09-19T10:43:22;101494.81;;;26.30;65.74
75886;BME280;64561;44.018;10.144;2023-09-19T10:45:53;101495.53;;;26.35;67.16
75886;BME280;64561;44.018;10.144;2023-09-19T10:48:23;101493.53;;;26.43;63.48
75886;BME280;64561;44.018;10.144;2023-09-19T10:51:10;101499.72;;;26.41;64.03
75886;BME280;64561;44.018;10.144;2023-09-19T10:53:51;101492.78;;;26.40;66.42
75886;BME280;64561;44.018;10.144;2023-09-19T10:56:32;101492.56;;;26.46;64.46
75886;BME280;64561;44.018;10.144;2023-09-19T10:59:09;101491.38;;;26.56;62.34
75886;BME280;64561;44.018;10.144;2023-09-19T11:04:23;101493.25;;;26.53;62.04
75886;BME280;64561;44.018;10.144;2023-09-19T11:09:53;101497.16;;;26.67;63.84
75886;BME280;64561;44.018;10.144;2023-09-19T11:12:47;101502.88;;;26.80;64.85
75886;BME280;64561;44.018;10.144;2023-09-19T11:26:49;101500.84;;;26.88;69.30
75886;BME280;64561;44.018;10.144;2023-09-19T11:29:30;101508.50;;;26.96;68.26
75886;BME280;64561;44.018;10.144;2023-09-19T11:31:58;101514.38;;;27.03;67.41
75886;BME280;64561;44.018;10.144;2023-09-19T11:34:42;101510.22;;;26.96;67.91
75886;BME280;64561;44.018;10.144;2023-09-19T11:40:05;101502.13;;;26.77;70.65
75886;BME280;64561;44.018;10.144;2023-09-19T11:42:46;101504.59;;;26.81;70.62
75886;BME280;64561;44.018;10.144;2023-09-19T11:48:18;101508.72;;;26.88;67.74
75886;BME280;64561;44.018;10.144;2023-09-19T11:50:46;101507.13;;;26.84;67.67
75886;BME280;64561;44.018;10.144;2023-09-19T11:53:14;101511.25;;;26.91;70.04
75886;BME280;64561;44.018;10.144;2023-09-19T11:55:43;101509.44;;;26.94;69.28
75886;BME280;64561;44.018;10.144;2023-09-19T11:58:15;101513.66;;;26.99;70.72
75886;BME280;64561;44.018;10.144;2023-09-19T12:00:44;101504.84;;;27.00;69.29
75886;BME280;64561;44.018;10.144;2023-09-19T12:03:12;101496.13;;;26.98;70.61
75886;BME280;64561;44.018;10.144;2023-09-19T12:05:45;101507.53;;;26.99;68.63
75886;BME280;64561;44.018;10.144;2023-09-19T12:08:14;101500.75;;;26.91;69.26
75886;BME280;64561;44.018;10.144;2023-09-19T12:10:47;101503.44;;;26.90;70.20
75886;BME280;64561;44.018;10.144;2023-09-19T12:13:19;101509.44;;;26.94;71.83
75886;BME280;64561;44.018;10.144;2023-09-19T12:15:48;101503.34;;;26.93;70.53
75886;BME280;64561;44.018;10.144;2023-09-19T12:18:31;101500.66;;;26.95;69.08
75886;BME280;64561;44.018;10.144;2023-09-19T12:21:02;101503.25;;;26.96;68.41
75886;BME280;64561;44.018;10.144;2023-09-19T12:23:34;101506.75;;;26.95;67.42
75886;BME280;64561;44.018;10.144;2023-09-19T12:26:04;101503.28;;;26.95;67.03
75886;BME280;64561;44.018;10.144;2023-09-19T12:28:41;101501.28;;;27.01;69.06
75886;BME280;64561;44.018;10.144;2023-09-19T12:31:09;101498.72;;;27.00;68.55
75886;BME280;64561;44.018;10.144;2023-09-19T12:33:36;101497.03;;;26.99;69.46
75886;BME280;64561;44.018;10.144;2023-09-19T12:36:20;101499.56;;;27.02;68.35
75886;BME280;64561;44.018;10.144;2023-09-19T12:38:56;101508.94;;;27.09;69.51
75886;BME280;64561;44.018;10.144;2023-09-19T12:41:26;101509.84;;;27.08;67.28
75886;BME280;64561;44.018;10.144;2023-09-19T12:43:53;101510.00;;;27.03;65.54
75886;BME280;64561;44.018;10.144;2023-09-19T12:46:21;101513.56;;;27.01;65.66
75886;BME280;64561;44.018;10.144;2023-09-19T12:49:18;101515.25;;;27.03;60.35
75886;BME280;64561;44.018;10.144;2023-09-19T12:51:46;101512.94;;;26.94;61.52
75886;BME280;64561;44.018;10.144;2023-09-19T12:54:15;101513.13;;;26.88;61.13
75886;BME280;64561;44.018;10.144;2023-09-19T12:56:44;101517.63;;;26.84;61.88
75886;BME280;64561;44.018;10.144;2023-09-19T12:59:13;101516.81;;;26.82;62.65
75886;BME280;64561;44.018;10.144;2023-09-19T13:01:42;101515.91;;;26.83;61.13
75886;BME280;64561;44.018;10.144;2023-09-19T13:04:21;101517.94;;;26.75;61.48
75886;BME280;64561;44.018;10.144;2023-09-19T13:06:57;101514.59;;;26.70;58.65
75886;BME280;64561;44.018;10.144;2023-09-19T13:09:28;101517.97;;;26.74;61.02
75886;BME280;64561;44.018;10.144;2023-09-19T13:12:02;101509.63;;;26.61;58.92
75886;BME280;64561;44.018;10.144;2023-09-19T13:14:30;101520.97;;;26.63;59.79
75886;BME280;64561;44.018;10.144;2023-09-19T13:17:06;101518.03;;;26.72;60.68
75886;BME280;64561;44.018;10.144;2023-09-19T13:19:54;101519.22;;;26.62;60.26
75886;BME280;64561;44.018;10.144;2023-09-19T13:22:42;101510.16;;;26.72;61.27
75886;BME280;64561;44.018;10.144;2023-09-19T13:26:43;101510.75;;;26.80;60.00
75886;BME280;64561;44.018;10.144;2023-09-19T13:29:10;101504.00;;;26.73;60.58
75886;BME280;64561;44.018;10.144;2023-09-19T13:31:37;101499.56;;;26.75;61.53
75886;BME280;64561;44.018;10.144;2023-09-19T13:34:08;101503.03;;;26.76;59.96
75886;BME280;64561;44.018;10.144;2023-09-19T13:36:35;101499.78;;;26.67;61.16
75886;BME280;64561;44.018;10.144;2023-09-19T13:39:04;101497.38;;;26.61;61.89
75886;BME280;64561;44.018;10.144;2023-09-19T13:41:32;101499.88;;;26.64;60.19